Time;durP1;ratioP1;P1;durP2;ratioP2;P2;SDS_P1;SDS_P2;PMS_P1;PMS_P2;Temp;Humidity;BMP_temperature;BMP_pressure;BME280_temperature;BME280_humidity;BME280_pressure;Samples;Min_cycle;Max_cycle;Signal;HPM_P1;HPM_P2
2020/12/04 00:02:19;;;;;;;15.98;7.15;;;;;;;5.19;69.66;98591.81;5090353;28;20226;-66
2020/12/04 00:04:47;;;;;;;18.08;8.43;;;;;;;5.17;69.77;98593.50;5090322;28;20040;-65
2020/12/04 00:07:14;;;;;;;16.20;7.72;;;;;;;5.17;69.96;98583.38;5089739;28;20048;-65
2020/12/04 00:09:46;;;;;;;15.98;8.02;;;;;;;5.24;69.25;98585.09;5090410;28;20055;-67
2020/12/04 00:12:13;;;;;;;15.75;7.57;;;;;;;5.20;69.46;98568.22;5090263;28;20440;-65
2020/12/04 00:14:41;;;;;;;14.25;7.05;;;;;;;5.16;68.84;98568.22;5090428;28;20044;-66
2020/12/04 00:17:10;;;;;;;15.70;7.25;;;;;;;5.13;69.25;98569.06;5090129;28;20040;-66
2020/12/04 00:19:38;;;;;;;14.43;7.38;;;;;;;5.22;69.70;98583.41;5090072;28;20528;-65
2020/12/04 00:22:07;;;;;;;16.38;7.75;;;;;;;5.21;69.44;98582.53;5090108;28;20032;-66
2020/12/04 00:24:34;;;;;;;15.27;7.50;;;;;;;5.18;69.50;98569.88;5089602;28;20052;-66
2020/12/04 00:27:11;;;;;;;17.02;7.70;;;;;;;5.17;69.74;98564.84;5090064;28;20056;-66
2020/12/04 00:29:39;;;;;;;15.00;7.63;;;;;;;5.16;69.86;98558.09;5089920;28;20403;-66
2020/12/04 00:32:06;;;;;;;13.20;6.85;;;;;;;5.10;70.20;98538.69;5090191;28;20040;-65
2020/12/04 00:34:36;;;;;;;14.60;7.97;;;;;;;5.16;69.79;98530.28;5088187;28;20115;-65
2020/12/04 00:37:03;;;;;;;14.25;7.53;;;;;;;5.16;70.06;98538.69;5076486;28;20041;-65
2020/12/04 00:39:31;;;;;;;15.90;7.30;;;;;;;5.24;70.16;98537.03;5076146;28;20434;-65
2020/12/04 00:42:00;;;;;;;15.98;8.18;;;;;;;5.22;69.75;98541.25;5076273;28;20044;-65
2020/12/04 00:44:28;;;;;;;18.75;8.00;;;;;;;5.23;70.00;98540.41;5108701;28;20040;-66
2020/12/04 00:46:58;;;;;;;17.05;8.30;;;;;;;5.22;70.09;98528.63;5076125;28;20036;-65
2020/12/04 00:49:26;;;;;;;16.45;8.10;;;;;;;5.19;70.19;98528.59;5074984;28;20041;-66
2020/12/04 00:51:55;;;;;;;16.30;7.95;;;;;;;5.17;70.62;98524.38;5076332;28;20428;-65
2020/12/04 00:54:25;;;;;;;15.18;7.40;;;;;;;5.14;70.69;98540.38;5074874;28;20080;-66
2020/12/04 00:56:53;;;;;;;16.08;8.35;;;;;;;5.18;71.05;98516.78;5075886;28;20049;-65
2020/12/04 00:59:30;;;;;;;16.05;8.27;;;;;;;5.17;71.21;98525.22;5074777;28;20414;-66
2020/12/04 01:01:57;;;;;;;16.35;9.07;;;;;;;5.17;71.81;98515.09;5075846;28;20044;-66
2020/12/04 01:04:25;;;;;;;17.75;8.27;;;;;;;5.14;71.92;98499.06;5075761;28;20398;-67
2020/12/04 01:06:53;;;;;;;18.98;8.85;;;;;;;5.20;71.52;98510.06;5075721;28;20090;-66
2020/12/04 01:09:22;;;;;;;16.30;7.45;;;;;;;5.14;71.65;98499.94;5075764;28;20048;-67
2020/12/04 01:11:52;;;;;;;17.02;9.05;;;;;;;5.26;71.86;98505.00;5075584;28;20048;-65
2020/12/04 01:14:20;;;;;;;16.23;7.38;;;;;;;5.25;71.80;98483.09;5075637;28;20466;-65
2020/12/04 01:16:47;;;;;;;18.08;8.32;;;;;;;5.20;71.81;98477.19;5075538;28;20061;-66
2020/12/04 01:19:15;;;;;;;17.90;8.73;;;;;;;5.19;72.31;98462.00;5075532;28;20045;-67
2020/12/04 01:21:47;;;;;;;19.80;8.68;;;;;;;5.23;71.94;98459.47;5075575;28;20049;-67
2020/12/04 01:24:15;;;;;;;16.37;8.27;;;;;;;5.21;72.34;98456.09;5075172;28;20083;-65
2020/12/04 01:26:44;;;;;;;17.58;9.10;;;;;;;5.19;72.09;98462.00;5075399;28;20098;-64
2020/12/04 01:29:12;;;;;;;17.40;7.88;;;;;;;5.19;72.59;98462.00;5075317;28;20040;-65
2020/12/04 01:31:40;;;;;;;14.45;7.45;;;;;;;5.23;72.58;98468.75;5075282;28;20058;-67
2020/12/04 01:34:09;;;;;;;17.17;8.00;;;;;;;5.23;72.67;98479.69;5075172;28;20098;-63
2020/12/04 01:36:37;;;;;;;17.07;7.77;;;;;;;5.20;72.68;98472.13;5075223;28;20059;-67
2020/12/04 01:39:04;;;;;;;15.40;7.93;;;;;;;5.22;72.78;98477.19;5075405;28;20040;-66
2020/12/04 01:41:34;;;;;;;17.42;8.73;;;;;;;5.22;73.15;98462.84;5075085;28;20064;-65
2020/12/04 01:44:02;;;;;;;16.20;7.90;;;;;;;5.22;72.42;98457.81;5075221;28;20517;-67
2020/12/04 01:46:30;;;;;;;17.97;8.50;;;;;;;5.13;73.02;98437.56;5074387;28;20405;-66
2020/12/04 01:48:58;;;;;;;21.13;7.97;;;;;;;5.20;72.77;98446.84;5074682;28;20048;-65
2020/12/04 01:51:25;;;;;;;20.85;9.50;;;;;;;5.19;72.92;98447.69;5074778;28;20044;-65
2020/12/04 01:53:53;;;;;;;16.15;8.68;;;;;;;5.18;73.05;98445.97;5074852;28;20045;-66
2020/12/04 01:56:21;;;;;;;17.13;8.25;;;;;;;5.16;72.81;98432.50;5074732;28;20044;-66
2020/12/04 01:58:48;;;;;;;14.32;7.80;;;;;;;5.19;72.97;98445.16;5074764;28;20084;-67
2020/12/04 02:01:17;;;;;;;16.48;8.15;;;;;;;5.21;73.01;98456.09;5074850;28;20048;-66
2020/12/04 02:03:45;;;;;;;17.48;8.80;;;;;;;5.14;72.79;98444.28;5074576;28;20417;-66
2020/12/04 02:06:16;;;;;;;16.35;8.63;;;;;;;5.14;73.08;98449.34;5074551;28;20044;-66
2020/12/04 02:08:48;;;;;;;15.35;8.10;;;;;;;5.20;73.18;98464.53;5074560;28;20494;-66
2020/12/04 02:11:18;;;;;;;16.30;8.57;;;;;;;5.21;72.99;98452.72;5074480;28;20044;-65
2020/12/04 02:13:46;;;;;;;15.32;7.95;;;;;;;5.24;72.39;98456.09;5074484;28;20047;-67
2020/12/04 02:16:14;;;;;;;13.95;7.72;;;;;;;5.17;72.53;98464.53;5074890;28;20040;-66
2020/12/04 02:18:43;;;;;;;17.77;8.27;;;;;;;5.14;72.76;98448.50;5074332;28;20048;-67
2020/12/04 02:21:12;;;;;;;17.80;8.43;;;;;;;5.20;73.08;98459.50;5074344;28;20052;-68
2020/12/04 02:23:40;;;;;;;15.55;7.97;;;;;;;5.17;72.97;98454.41;5073882;28;20053;-65
2020/12/04 02:26:08;;;;;;;19.17;8.43;;;;;;;5.12;73.10;98451.03;5074248;28;20043;-65
2020/12/04 02:28:36;;;;;;;16.67;8.73;;;;;;;5.09;73.59;98445.13;5074116;28;20489;-64
2020/12/04 02:31:04;;;;;;;17.17;8.40;;;;;;;5.02;73.65;98429.13;5074119;28;20036;-63
2020/12/04 02:33:32;;;;;;;16.40;7.70;;;;;;;5.10;73.31;98434.19;5074045;28;20047;-66
2020/12/04 02:36:02;;;;;;;15.38;7.95;;;;;;;5.21;73.17;98435.03;5074005;28;20047;-67
2020/12/04 02:38:32;;;;;;;16.92;8.88;;;;;;;5.24;73.23;98425.75;5073057;28;20495;-64
2020/12/04 02:40:59;;;;;;;18.40;8.57;;;;;;;5.33;72.84;98429.97;5073996;28;20048;-66
2020/12/04 02:43:27;;;;;;;18.23;8.25;;;;;;;5.33;72.68;98435.88;5074266;28;20048;-67
2020/12/04 02:45:55;;;;;;;17.83;8.88;;;;;;;5.29;72.69;98434.19;5073713;28;20044;-65
2020/12/04 02:48:24;;;;;;;16.80;8.75;;;;;;;5.27;72.87;98425.78;5073881;28;20045;-65
2020/12/04 02:50:51;;;;;;;15.80;8.07;;;;;;;5.18;72.53;98423.22;5073781;28;20608;-67
2020/12/04 02:53:19;;;;;;;14.63;8.15;;;;;;;5.28;72.51;98412.25;5074154;28;20052;-67
2020/12/04 02:55:48;;;;;;;16.48;8.07;;;;;;;5.33;72.20;98419.84;5073656;28;20060;-66
2020/12/04 02:58:16;;;;;;;15.70;7.72;;;;;;;5.31;72.09;98414.81;5073547;28;20044;-67
2020/12/04 03:00:43;;;;;;;16.83;8.48;;;;;;;5.28;72.22;98412.25;5073531;28;20040;-67
2020/12/04 03:03:11;;;;;;;20.10;8.00;;;;;;;5.27;71.98;98415.66;5073655;28;20067;-67
2020/12/04 03:05:39;;;;;;;18.35;8.30;;;;;;;5.28;72.23;98422.38;5073547;28;20051;-65
2020/12/04 03:08:07;;;;;;;17.52;8.63;;;;;;;5.23;71.74;98413.94;5072660;28;20045;-67
2020/12/04 03:10:34;;;;;;;17.38;8.32;;;;;;;5.29;71.99;98419.03;5073534;28;20036;-66
2020/12/04 03:13:03;;;;;;;18.42;8.68;;;;;;;5.21;72.00;98423.22;5073518;28;20037;-66
2020/12/04 03:15:31;;;;;;;16.27;8.27;;;;;;;5.25;72.09;98431.66;5073625;28;20052;-66
2020/12/04 03:18:00;;;;;;;18.67;8.50;;;;;;;5.14;72.51;98413.94;5073555;28;20063;-67
2020/12/04 03:20:27;;;;;;;14.65;7.47;;;;;;;5.21;72.99;98422.38;5073515;28;20047;-67
2020/12/04 03:22:55;;;;;;;20.13;8.18;;;;;;;5.19;72.45;98427.44;5073217;28;20120;-66
2020/12/04 03:25:23;;;;;;;17.20;8.43;;;;;;;5.18;72.56;98430.81;5073285;28;20080;-65
2020/12/04 03:27:51;;;;;;;17.38;8.13;;;;;;;5.17;72.55;98435.88;5073356;28;20045;-66
2020/12/04 03:30:19;;;;;;;15.85;7.90;;;;;;;5.19;72.37;98427.44;5073437;28;20033;-67
2020/12/04 03:32:47;;;;;;;16.75;8.63;;;;;;;5.20;72.33;98419.03;5073283;28;20045;-66
2020/12/04 03:35:15;;;;;;;21.77;10.43;;;;;;;5.19;72.47;98422.38;5073330;28;20040;-66
2020/12/04 03:37:44;;;;;;;12.48;6.70;;;;;;;5.17;72.41;98419.03;5073252;28;20040;-66
2020/12/04 03:40:11;;;;;;;17.10;8.00;;;;;;;5.17;72.28;98413.97;5073179;28;20123;-65
2020/12/04 03:42:39;;;;;;;16.38;8.63;;;;;;;5.07;72.90;98394.56;5073220;28;20044;-67
2020/12/04 03:45:07;;;;;;;15.27;8.35;;;;;;;5.16;72.34;98409.72;5071898;28;20120;-66
2020/12/04 03:47:37;;;;;;;14.70;7.82;;;;;;;5.15;72.43;98409.75;5073218;28;20041;-66
2020/12/04 03:50:05;;;;;;;17.77;7.93;;;;;;;5.12;72.50;98409.75;5073254;28;20076;-67
2020/12/04 03:52:32;;;;;;;16.55;7.78;;;;;;;5.16;72.77;98409.72;5073138;28;20041;-67
2020/12/04 03:55:00;;;;;;;14.27;8.30;;;;;;;5.17;72.66;98425.75;5072067;28;20044;-65
2020/12/04 03:57:28;;;;;;;14.85;8.02;;;;;;;5.14;72.70;98424.06;5073124;28;20037;-65
2020/12/04 03:59:55;;;;;;;16.25;8.35;;;;;;;5.13;72.55;98422.41;5072927;28;20047;-66
2020/12/04 04:02:23;;;;;;;17.55;8.30;;;;;;;5.12;72.50;98424.91;5073114;28;20037;-68
2020/12/04 04:04:53;;;;;;;14.63;7.80;;;;;;;5.07;72.95;98417.31;5072922;28;20032;-68
2020/12/04 04:07:20;;;;;;;15.10;7.75;;;;;;;5.15;72.49;98437.56;5073086;28;20696;-66
2020/12/04 04:09:49;;;;;;;16.00;7.70;;;;;;;5.11;72.29;98439.22;5072907;28;20052;-66
2020/12/04 04:12:16;;;;;;;17.75;8.40;;;;;;;5.08;72.68;98434.19;5077056;28;20044;-65
2020/12/04 04:14:44;;;;;;;12.88;7.22;;;;;;;5.09;72.48;98433.34;5076654;28;20529;-65
2020/12/04 04:17:11;;;;;;;16.10;8.50;;;;;;;5.08;72.70;98434.19;5076610;28;20079;-65
2020/12/04 04:19:39;;;;;;;15.13;7.55;;;;;;;5.06;72.16;98438.38;5076587;28;20059;-66
2020/12/04 04:22:08;;;;;;;15.13;7.90;;;;;;;4.98;72.23;98436.69;5076492;28;20048;-67
2020/12/04 04:24:36;;;;;;;17.90;7.85;;;;;;;4.92;72.35;98427.41;5076399;28;20052;-66
2020/12/04 04:27:04;;;;;;;14.55;7.93;;;;;;;5.03;72.55;98440.94;5076405;28;20552;-66
2020/12/04 04:29:31;;;;;;;15.63;7.70;;;;;;;5.01;72.17;98447.66;5076471;28;20048;-66
2020/12/04 04:31:59;;;;;;;18.23;7.63;;;;;;;4.99;72.65;98454.38;5076289;28;20045;-67
2020/12/04 04:34:27;;;;;;;16.35;8.57;;;;;;;4.98;72.11;98457.78;5075188;28;20494;-65
2020/12/04 04:36:55;;;;;;;18.90;8.52;;;;;;;4.91;72.45;98445.97;5076271;28;20049;-65
2020/12/04 04:39:25;;;;;;;14.05;7.82;;;;;;;4.91;72.21;98451.03;5076279;28;20141;-67
2020/12/04 04:41:56;;;;;;;19.63;8.50;;;;;;;4.93;72.62;98449.34;5076207;28;20040;-67
2020/12/04 04:44:23;;;;;;;16.55;8.07;;;;;;;4.93;72.34;98449.34;5076231;28;20091;-67
2020/12/04 04:46:58;;;;;;;15.18;7.75;;;;;;;4.95;71.94;98454.38;5076114;28;20040;-66
2020/12/04 04:49:27;;;;;;;15.70;7.97;;;;;;;4.90;72.16;98454.38;5076143;28;20486;-66
2020/12/04 04:51:55;;;;;;;13.55;6.63;;;;;;;4.82;72.26;98425.75;5076067;28;20037;-65
2020/12/04 04:54:25;;;;;;;16.77;7.38;;;;;;;4.90;72.28;98435.84;5075977;28;20041;-66
2020/12/04 04:56:53;;;;;;;16.88;8.60;;;;;;;4.93;72.60;98451.84;5075987;28;20040;-65
2020/12/04 04:59:21;;;;;;;16.33;8.23;;;;;;;4.92;72.37;98452.69;5075885;28;20076;-65
2020/12/04 05:01:49;;;;;;;16.25;7.82;;;;;;;4.87;72.16;98436.66;5075891;28;20495;-66
2020/12/04 05:04:17;;;;;;;18.63;8.30;;;;;;;4.88;72.36;98435.84;5075734;28;20044;-66
2020/12/04 05:06:45;;;;;;;16.48;7.97;;;;;;;4.93;72.12;98449.34;5076093;28;20052;-66
2020/12/04 05:09:15;;;;;;;15.70;7.35;;;;;;;4.91;72.29;98448.50;5075713;28;20047;-66
2020/12/04 05:11:51;;;;;;;16.80;7.10;;;;;;;4.91;72.08;98445.13;5075762;28;20053;-66
2020/12/04 05:14:23;;;;;;;13.65;6.30;;;;;;;4.86;72.38;98447.63;5076087;28;20132;-66
2020/12/04 05:16:52;;;;;;;18.02;7.97;;;;;;;4.83;72.42;98441.72;5074460;28;20157;-65
2020/12/04 05:19:25;;;;;;;15.87;7.13;;;;;;;4.86;71.89;98440.06;5075534;28;20487;-65
2020/12/04 05:21:53;;;;;;;17.90;7.70;;;;;;;4.83;72.12;98444.25;5075488;28;20049;-66
2020/12/04 05:24:26;;;;;;;16.23;7.25;;;;;;;4.87;72.33;98438.38;5075211;28;20060;-67
2020/12/04 05:26:54;;;;;;;15.10;7.30;;;;;;;4.84;72.10;98445.94;5075460;28;20060;-67
2020/12/04 05:29:36;;;;;;;13.52;6.25;;;;;;;4.81;72.43;98438.34;5075573;28;20047;-66
2020/12/04 05:32:13;;;;;;;16.80;8.13;;;;;;;4.75;72.56;98434.97;5075388;28;20517;-65
2020/12/04 05:34:41;;;;;;;16.67;8.10;;;;;;;4.79;72.58;98440.88;5075288;28;20052;-66
2020/12/04 05:37:10;;;;;;;16.75;7.75;;;;;;;4.72;72.53;98434.13;5074056;28;20132;-66
2020/12/04 05:39:41;;;;;;;17.10;7.78;;;;;;;4.79;72.61;98440.88;5075139;28;20055;-66
2020/12/04 05:42:09;;;;;;;20.13;7.97;;;;;;;4.78;72.89;98440.88;5073977;28;20048;-66
2020/12/04 05:44:52;;;;;;;15.75;7.82;;;;;;;4.79;72.93;98445.94;5074841;28;20049;-66
2020/12/04 05:47:20;;;;;;;17.00;7.43;;;;;;;4.69;72.83;98431.59;5075134;28;20049;-67
2020/12/04 05:49:48;;;;;;;16.55;7.15;;;;;;;4.83;73.08;98437.50;5074929;28;20135;-65
2020/12/04 05:52:16;;;;;;;15.57;7.40;;;;;;;4.76;72.91;98428.22;5074808;28;20123;-65
2020/12/04 05:54:44;;;;;;;16.30;8.32;;;;;;;4.43;73.12;98375.13;5074779;28;20146;-65
2020/12/04 05:57:11;;;;;;;14.77;6.93;;;;;;;4.48;73.18;98386.06;5074724;28;20071;-65
2020/12/04 05:59:42;;;;;;;;;;;;;;;4.83;73.57;98450.16;5075194;28;20052;-64
2020/12/04 06:02:13;;;;;;;13.18;6.78;;;;;;;4.25;73.65;98352.34;5074656;28;19928;-65
2020/12/04 06:04:53;;;;;;;17.15;7.50;;;;;;;4.76;73.95;98450.97;5074499;28;20041;-65
2020/12/04 06:07:26;;;;;;;15.30;7.10;;;;;;;4.73;74.43;98436.66;5074568;28;20044;-65
2020/12/04 06:09:55;;;;;;;15.70;7.20;;;;;;;4.72;74.55;98439.19;5074573;28;20048;-65
2020/12/04 06:12:23;;;;;;;16.48;7.63;;;;;;;4.71;75.62;98434.97;5074581;28;20043;-64
2020/12/04 06:14:52;;;;;;;14.52;7.53;;;;;;;4.56;75.74;98412.19;5074404;28;20118;-64
2020/12/04 06:17:20;;;;;;;16.38;7.25;;;;;;;4.70;76.03;98456.03;5074394;28;20056;-64
2020/12/04 06:19:47;;;;;;;14.85;7.45;;;;;;;4.71;76.52;98462.75;5074327;28;20040;-64
2020/12/04 06:22:16;;;;;;;15.98;7.80;;;;;;;4.71;76.97;98471.19;5074680;28;20072;-65
2020/12/04 06:24:51;;;;;;;14.10;7.10;;;;;;;4.70;77.04;98466.97;5073651;28;20066;-64
2020/12/04 06:27:36;;;;;;;14.52;7.40;;;;;;;4.68;77.61;98472.84;5073106;28;20074;-65
2020/12/04 06:30:06;;;;;;;16.65;7.72;;;;;;;4.65;77.99;98472.84;5074565;28;20068;-64
2020/12/04 06:32:35;;;;;;;9.80;5.03;;;;;;;4.57;77.63;98457.69;5073636;28;20398;-64
2020/12/04 06:35:03;;;;;;;15.65;7.82;;;;;;;4.63;77.63;98464.44;5073739;28;20444;-64
2020/12/04 06:37:34;;;;;;;16.63;7.55;;;;;;;4.59;77.76;98455.13;5074025;28;20071;-64
2020/12/04 06:40:22;;;;;;;15.60;6.70;;;;;;;4.59;77.69;98467.78;5073897;28;20048;-64
2020/12/04 06:42:50;;;;;;;14.10;7.50;;;;;;;4.23;77.43;98417.13;5073660;28;20116;-64
2020/12/04 06:45:19;;;;;;;14.32;7.38;;;;;;;4.57;78.02;98474.50;5073737;28;20086;-64
2020/12/04 06:48:04;;;;;;;16.85;7.45;;;;;;;4.55;77.74;98487.16;5073743;28;20072;-64
2020/12/04 06:50:37;;;;;;;14.13;6.53;;;;;;;4.45;78.32;98459.31;5073646;28;20052;-64
2020/12/04 06:53:07;;;;;;;17.27;7.03;;;;;;;4.48;78.54;98464.38;5073800;28;20072;-64
2020/12/04 06:55:35;;;;;;;17.38;8.05;;;;;;;4.49;78.26;98476.16;5074202;28;20048;-64
2020/12/04 06:58:03;;;;;;;12.60;6.47;;;;;;;4.55;78.31;98461.03;5073663;28;20045;-64
2020/12/04 07:00:31;;;;;;;13.38;6.82;;;;;;;4.53;78.66;98467.75;5073564;28;20045;-64
2020/12/04 07:02:59;;;;;;;14.60;7.32;;;;;;;4.19;78.53;98401.13;5073893;28;20510;-64
2020/12/04 07:05:28;;;;;;;16.42;6.57;;;;;;;4.50;78.48;98467.75;5073446;28;20510;-64
2020/12/04 07:08:01;;;;;;;18.65;7.50;;;;;;;4.56;78.25;98462.69;5073509;28;20049;-64
2020/12/04 07:10:30;;;;;;;16.20;8.60;;;;;;;4.56;78.62;98453.44;5073583;28;20048;-64
2020/12/04 07:12:59;;;;;;;16.27;7.70;;;;;;;4.54;78.41;98436.59;5073574;28;20085;-64
2020/12/04 07:15:27;;;;;;;10.05;5.45;;;;;;;4.59;78.96;98445.03;5073527;28;20491;-64
2020/12/04 07:17:56;;;;;;;15.60;7.90;;;;;;;4.52;79.05;98425.66;5073530;28;20547;-66
2020/12/04 07:20:31;;;;;;;18.40;7.60;;;;;;;4.49;79.10;98421.44;5072348;28;20398;-64
2020/12/04 07:22:59;;;;;;;13.30;7.07;;;;;;;4.61;79.05;98436.63;5073511;28;20044;-65
2020/12/04 07:25:27;;;;;;;14.70;7.22;;;;;;;4.62;78.61;98447.56;5073183;28;20502;-64
2020/12/04 07:27:55;;;;;;;14.00;6.60;;;;;;;4.66;77.98;98444.22;5073355;28;20040;-64
2020/12/04 07:30:25;;;;;;;16.77;7.60;;;;;;;4.70;77.90;98446.75;5073334;28;20063;-66
2020/12/04 07:32:53;;;;;;;14.48;6.88;;;;;;;4.69;78.23;98449.28;5073381;28;20048;-65
2020/12/04 07:35:22;;;;;;;15.73;7.60;;;;;;;4.68;77.65;98450.09;5073402;28;20120;-64
2020/12/04 07:37:50;;;;;;;12.77;6.88;;;;;;;4.67;77.96;98449.28;5073222;28;20037;-64
2020/12/04 07:40:18;;;;;;;13.88;7.00;;;;;;;4.70;78.00;98450.97;5073289;28;20441;-64
2020/12/04 07:42:48;;;;;;;18.25;7.85;;;;;;;4.72;78.02;98439.19;5073170;28;20049;-64
2020/12/04 07:45:18;;;;;;;13.80;7.30;;;;;;;4.66;78.29;98426.53;5074471;28;20490;-64
2020/12/04 07:47:45;;;;;;;13.10;6.75;;;;;;;4.61;77.90;98425.66;5077165;28;20049;-64
2020/12/04 07:50:14;;;;;;;14.48;7.28;;;;;;;4.67;78.47;98435.81;5077168;28;20151;-64
2020/12/04 07:52:50;;;;;;;15.15;7.40;;;;;;;4.56;78.54;98419.75;5077173;28;20054;-64
2020/12/04 07:55:20;;;;;;;13.43;7.03;;;;;;;4.61;78.17;98421.47;5077159;28;20121;-65
2020/12/04 07:57:53;;;;;;;14.75;7.22;;;;;;;4.65;78.87;98419.81;5077099;28;20040;-64
2020/12/04 08:00:21;;;;;;;14.23;7.47;;;;;;;4.58;79.23;98400.41;5077113;28;20098;-64
2020/12/04 08:02:48;;;;;;;16.35;8.32;;;;;;;4.63;78.88;98413.91;5076677;28;20053;-64
2020/12/04 08:05:19;;;;;;;19.63;8.63;;;;;;;4.76;78.80;98425.72;5076673;28;20388;-64
2020/12/04 08:07:52;;;;;;;17.00;8.13;;;;;;;4.74;79.11;98432.44;5076793;28;20072;-64
2020/12/04 08:10:20;;;;;;;14.57;7.70;;;;;;;4.84;78.42;98441.75;5076960;28;20051;-64
2020/12/04 08:12:48;;;;;;;15.98;8.18;;;;;;;4.85;78.83;98430.78;5076750;28;20036;-64
2020/12/04 08:15:17;;;;;;;14.48;7.75;;;;;;;4.89;78.45;98441.75;5076593;28;20048;-65
2020/12/04 08:17:45;;;;;;;14.27;7.07;;;;;;;4.95;78.47;98451.84;5076628;28;20071;-64
2020/12/04 08:20:15;;;;;;;14.68;7.40;;;;;;;4.91;77.53;98445.97;5076614;28;20060;-64
2020/12/04 08:22:47;;;;;;;13.98;6.68;;;;;;;4.77;78.17;98427.41;5076608;28;20052;-64
2020/12/04 08:25:22;;;;;;;13.35;7.32;;;;;;;4.90;78.22;98451.84;5076367;28;20053;-64
2020/12/04 08:27:50;;;;;;;16.88;7.47;;;;;;;4.89;78.14;98467.03;5076449;28;20049;-65
2020/12/04 08:30:18;;;;;;;14.43;7.55;;;;;;;4.90;78.50;98464.50;5076320;28;20037;-64
2020/12/04 08:32:47;;;;;;;14.00;7.32;;;;;;;5.01;77.90;98472.09;5076400;28;20044;-64
2020/12/04 08:35:16;;;;;;;14.88;7.35;;;;;;;5.13;77.38;98467.91;5076334;28;20063;-64
2020/12/04 08:37:44;;;;;;;14.13;7.63;;;;;;;5.11;77.81;98474.63;5076318;28;20052;-64
2020/12/04 08:40:18;;;;;;;14.73;7.15;;;;;;;5.11;77.25;98466.22;5076540;28;20093;-65
2020/12/04 08:42:48;;;;;;;13.43;6.57;;;;;;;5.07;77.38;98461.97;5076230;28;20410;-65
2020/12/04 08:45:16;;;;;;;13.55;7.40;;;;;;;5.08;77.48;98469.59;5076035;28;20490;-65
2020/12/04 08:47:45;;;;;;;16.85;7.80;;;;;;;5.21;76.99;98466.22;5076116;28;20044;-64
2020/12/04 08:50:15;;;;;;;14.20;7.22;;;;;;;5.21;76.77;98461.16;5076316;28;20079;-65
2020/12/04 08:52:51;;;;;;;19.10;8.80;;;;;;;5.11;77.48;98451.88;5076055;28;20510;-64
2020/12/04 08:55:20;;;;;;;19.05;8.68;;;;;;;5.18;77.22;98466.19;5074933;28;20045;-65
2020/12/04 08:57:49;;;;;;;18.85;9.00;;;;;;;5.14;77.07;98464.53;5075383;28;20041;-64
2020/12/04 09:00:17;;;;;;;17.17;8.27;;;;;;;4.74;76.99;98397.06;5075988;28;20098;-65
2020/12/04 09:02:47;;;;;;;17.05;8.40;;;;;;;4.96;77.70;98428.28;5075909;28;20040;-65
2020/12/04 09:05:16;;;;;;;13.23;6.90;;;;;;;5.16;78.06;98447.66;5076148;28;20076;-65
2020/12/04 09:07:44;;;;;;;15.55;7.65;;;;;;;5.20;77.87;98451.91;5076078;28;20500;-66
2020/12/04 09:10:13;;;;;;;14.65;8.00;;;;;;;5.21;78.27;98447.66;5075780;28;20094;-65
2020/12/04 09:12:41;;;;;;;13.77;7.37;;;;;;;5.17;78.15;98444.31;5075704;28;20106;-65
2020/12/04 09:15:13;;;;;;;14.27;6.95;;;;;;;5.17;77.98;98448.50;5075631;28;20052;-65
2020/12/04 09:17:42;;;;;;;13.75;7.05;;;;;;;5.19;78.41;98462.84;5075481;28;20539;-66
2020/12/04 09:20:10;;;;;;;13.40;7.07;;;;;;;5.19;78.54;98456.94;5075599;28;20568;-66
2020/12/04 09:22:42;;;;;;;12.80;6.45;;;;;;;5.23;78.37;98453.59;5075544;28;20076;-65
2020/12/04 09:25:11;;;;;;;12.23;6.63;;;;;;;5.30;78.21;98451.03;5075153;28;20052;-67
2020/12/04 09:27:42;;;;;;;13.98;6.80;;;;;;;5.32;77.96;98439.25;5075801;28;20059;-66
2020/12/04 09:30:12;;;;;;;14.65;6.57;;;;;;;5.48;77.01;98437.56;5075434;28;20037;-65
2020/12/04 09:32:42;;;;;;;12.65;6.75;;;;;;;5.40;76.73;98408.88;5075368;28;20044;-66
2020/12/04 09:35:10;;;;;;;14.30;7.20;;;;;;;5.48;76.92;98431.66;5075234;28;20044;-65
2020/12/04 09:37:39;;;;;;;14.02;6.68;;;;;;;5.45;76.80;98440.06;5075416;28;20062;-65
2020/12/04 09:40:08;;;;;;;12.48;6.75;;;;;;;5.40;76.79;98432.50;5074993;28;20041;-66
2020/12/04 09:42:36;;;;;;;13.38;7.32;;;;;;;5.55;76.13;98410.56;5075125;28;20052;-65
2020/12/04 09:45:04;;;;;;;12.48;6.57;;;;;;;5.68;76.27;98427.41;5075240;28;20043;-65
2020/12/04 09:47:35;;;;;;;15.50;7.90;;;;;;;5.65;76.70;98423.19;5075252;28;20060;-65
2020/12/04 09:50:03;;;;;;;13.80;7.32;;;;;;;5.63;76.61;98422.38;5074858;28;20132;-65
2020/12/04 09:52:32;;;;;;;12.98;6.25;;;;;;;5.69;76.46;98421.50;5074840;28;20052;-66
2020/12/04 09:55:00;;;;;;;12.55;6.40;;;;;;;5.64;75.91;98418.16;5074619;28;20037;-65
2020/12/04 09:57:27;;;;;;;14.88;7.57;;;;;;;5.67;76.27;98430.78;5074750;28;20052;-66
2020/12/04 09:59:55;;;;;;;13.88;7.20;;;;;;;5.70;76.24;98433.31;5074528;28;20047;-65
2020/12/04 10:02:26;;;;;;;13.20;7.20;;;;;;;5.72;76.39;98426.56;5074744;28;20074;-65
2020/12/04 10:04:56;;;;;;;15.55;8.05;;;;;;;5.76;75.79;98428.25;5074882;28;20486;-66
2020/12/04 10:07:25;;;;;;;13.05;7.57;;;;;;;5.66;76.38;98419.00;5074055;28;20482;-65
2020/12/04 10:09:53;;;;;;;15.05;7.07;;;;;;;5.71;75.92;98435.00;5074527;28;20053;-66
2020/12/04 10:12:46;;;;;;;14.35;7.53;;;;;;;5.71;75.94;98440.88;5074559;28;20106;-66
2020/12/04 10:15:14;;;;;;;17.65;8.18;;;;;;;5.69;76.20;98445.13;5074401;28;20128;-65
2020/12/04 10:17:42;;;;;;;14.90;7.45;;;;;;;5.74;76.71;98437.50;5074361;28;20076;-65
2020/12/04 10:20:12;;;;;;;16.88;8.05;;;;;;;5.66;76.07;98413.94;5074375;28;20056;-65
2020/12/04 10:22:44;;;;;;;15.68;8.32;;;;;;;5.79;76.40;98423.16;5074247;28;20040;-65
2020/12/04 10:25:16;;;;;;;14.70;7.20;;;;;;;5.78;76.34;98426.56;5073447;28;20048;-65
2020/12/04 10:27:47;;;;;;;15.13;8.18;;;;;;;5.87;75.83;98431.63;5074247;28;20445;-65
2020/12/04 10:30:15;;;;;;;14.70;7.63;;;;;;;5.87;76.03;98419.81;5074154;28;20072;-65
2020/12/04 10:32:43;;;;;;;13.13;6.72;;;;;;;5.52;75.53;98353.22;5074110;28;20045;-66
2020/12/04 10:35:12;;;;;;;14.02;7.22;;;;;;;5.74;75.88;98397.00;5072899;28;20143;-65
2020/12/04 10:37:43;;;;;;;14.38;7.13;;;;;;;5.83;76.08;98422.34;5074107;28;20056;-65
2020/12/04 10:40:11;;;;;;;13.30;7.63;;;;;;;5.87;75.73;98411.38;5074026;28;20068;-66
2020/12/04 10:42:39;;;;;;;14.45;7.75;;;;;;;5.86;76.43;98424.88;5073822;28;20040;-65
2020/12/04 10:45:06;;;;;;;14.13;7.40;;;;;;;5.83;76.27;98417.28;5073955;28;20132;-65
2020/12/04 10:47:34;;;;;;;15.60;7.65;;;;;;;5.84;76.26;98408.81;5073803;28;20093;-65
2020/12/04 10:50:02;;;;;;;17.05;8.05;;;;;;;5.88;76.41;98413.03;5073836;28;20040;-66
2020/12/04 10:52:32;;;;;;;16.77;7.97;;;;;;;5.81;75.70;98409.66;5072688;28;20048;-65
2020/12/04 10:55:00;;;;;;;14.48;7.78;;;;;;;5.92;76.06;98427.41;5073817;28;20083;-65
2020/12/04 10:57:28;;;;;;;18.13;8.02;;;;;;;5.93;75.81;98429.06;5072554;28;20155;-66
2020/12/04 10:59:56;;;;;;;15.30;8.63;;;;;;;5.91;76.44;98430.75;5073804;28;20098;-65
2020/12/04 11:02:28;;;;;;;14.15;7.07;;;;;;;5.91;76.08;98425.69;5073970;28;20056;-66
2020/12/04 11:07:53;;;;;;;16.95;8.23;;;;;;;6.01;75.60;98409.66;5073611;28;20402;-65
2020/12/04 11:10:22;;;;;;;17.35;8.57;;;;;;;6.08;75.35;98423.97;5073652;28;20052;-67
2020/12/04 11:13:14;;;;;;;14.07;7.43;;;;;;;6.04;75.52;98432.44;5073588;28;20056;-66
2020/12/04 11:15:42;;;;;;;15.73;8.00;;;;;;;6.01;75.40;98429.91;5073533;28;20052;-67
2020/12/04 11:18:13;;;;;;;14.15;7.30;;;;;;;6.04;75.22;98438.34;5073581;28;20562;-67
2020/12/04 11:20:41;;;;;;;12.90;6.70;;;;;;;6.19;74.51;98442.50;5073318;28;20045;-66
2020/12/04 11:23:36;;;;;;;12.93;7.40;;;;;;;6.10;74.50;98432.41;5072706;28;20053;-66
2020/12/04 11:26:03;;;;;;;12.80;7.28;;;;;;;6.20;74.12;98449.25;5073304;28;20453;-65
2020/12/04 11:28:59;;;;;;;15.98;7.32;;;;;;;6.18;74.15;98440.81;5073529;28;20045;-65
2020/12/04 11:31:51;;;;;;;14.45;6.88;;;;;;;6.13;74.36;98442.53;5073427;28;20483;-66
2020/12/04 11:34:19;;;;;;;13.63;6.60;;;;;;;6.19;74.47;98432.34;5073355;28;20392;-65
2020/12/04 11:36:48;;;;;;;14.60;6.63;;;;;;;6.26;73.78;98434.06;5073354;28;20049;-65
2020/12/04 11:39:16;;;;;;;12.70;7.03;;;;;;;6.24;73.84;98415.47;5073270;28;20429;-66
2020/12/04 11:41:48;;;;;;;13.15;6.65;;;;;;;6.23;73.71;98415.47;5073158;28;20056;-65
2020/12/04 11:44:15;;;;;;;11.60;6.30;;;;;;;6.31;73.86;98417.13;5066927;28;20049;-65
2020/12/04 11:46:43;;;;;;;13.05;6.80;;;;;;;6.32;73.82;98408.69;5073167;28;20490;-65
2020/12/04 11:49:26;;;;;;;14.23;6.82;;;;;;;6.29;73.99;98418.81;5073244;28;20047;-66